createdAt,value
2022-12-08T00:01:07.525Z,-0.86
2022-12-08T00:03:38.147Z,-0.81
2022-12-08T00:06:31.823Z,-0.90
2022-12-08T00:09:21.607Z,-0.90
2022-12-08T00:11:56.186Z,-0.97
2022-12-08T00:14:28.636Z,-0.99
2022-12-08T00:16:59.574Z,-0.96
2022-12-08T00:19:30.055Z,-0.92
2022-12-08T00:22:00.615Z,-0.90
2022-12-08T00:24:35.009Z,-0.93
2022-12-08T00:27:07.238Z,-0.91
2022-12-08T00:29:37.225Z,-0.88
2022-12-08T00:32:08.453Z,-0.90
2022-12-08T00:34:38.525Z,-0.96
2022-12-08T00:37:08.875Z,-0.95
2022-12-08T00:39:38.875Z,-0.99
2022-12-08T00:42:13.899Z,-0.87
2022-12-08T00:44:44.767Z,-0.94
2022-12-08T00:47:18.726Z,-1.05
2022-12-08T00:49:52.333Z,-1.13
2022-12-08T00:52:22.957Z,-1.15
2022-12-08T00:54:52.946Z,-1.14
2022-12-08T00:57:24.806Z,-1.11
2022-12-08T00:59:54.861Z,-1.08
2022-12-08T01:02:25.175Z,-1.11
2022-12-08T01:04:55.165Z,-1.13
2022-12-08T01:07:25.592Z,-1.11
2022-12-08T01:09:55.465Z,-1.08
2022-12-08T01:12:27.444Z,-1.10
2022-12-08T01:15:02.070Z,-1.10
2022-12-08T01:17:34.115Z,-1.08
2022-12-08T01:20:04.311Z,-0.99
2022-12-08T01:22:36.718Z,-1.01
2022-12-08T01:25:07.139Z,-1.03
2022-12-08T01:27:39.004Z,-0.94
2022-12-08T01:30:10.226Z,-0.90
2022-12-08T01:32:40.177Z,-0.95
2022-12-08T01:35:11.066Z,-0.94
2022-12-08T01:37:41.376Z,-0.98
2022-12-08T01:40:12.029Z,-1.00
2022-12-08T01:42:43.789Z,-0.98
2022-12-08T01:45:23.408Z,-0.97
2022-12-08T01:47:58.096Z,-0.95
2022-12-08T01:50:29.586Z,-0.95
2022-12-08T01:53:03.769Z,-0.92
2022-12-08T01:55:38.598Z,-0.93
2022-12-08T01:58:17.660Z,-0.94
2022-12-08T02:00:49.176Z,-0.97
2022-12-08T02:03:26.051Z,-0.90
2022-12-08T02:05:56.428Z,-0.96
2022-12-08T02:08:27.669Z,-0.93
2022-12-08T02:10:57.701Z,-0.93
2022-12-08T02:13:29.669Z,-0.94
2022-12-08T02:16:03.380Z,-0.95
2022-12-08T02:19:29.187Z,-0.96
2022-12-08T02:21:57.339Z,-0.99
2022-12-08T02:24:35.417Z,-0.99
2022-12-08T02:27:30.168Z,-1.00
2022-12-08T02:30:20.169Z,-0.99
2022-12-08T02:33:23.128Z,-1.10
2022-12-08T02:36:01.151Z,-1.19
2022-12-08T02:38:50.262Z,-1.08
2022-12-08T02:41:33.690Z,-1.19
2022-12-08T02:44:10.588Z,-1.21
2022-12-08T02:46:47.562Z,-1.22
2022-12-08T02:49:17.577Z,-1.27
2022-12-08T02:51:49.469Z,-1.29
2022-12-08T02:54:19.078Z,-1.26
2022-12-08T02:57:09.582Z,-1.26
2022-12-08T02:59:54.080Z,-1.26
2022-12-08T03:02:45.037Z,-1.24
2022-12-08T03:05:31.637Z,-1.25
2022-12-08T03:08:10.185Z,-1.27
2022-12-08T03:10:46.720Z,-1.23
2022-12-08T03:13:21.961Z,-1.24
2022-12-08T03:15:54.600Z,-1.24
2022-12-08T03:18:30.584Z,-1.21
2022-12-08T03:21:02.012Z,-1.23
2022-12-08T03:23:34.319Z,-1.26
2022-12-08T03:26:15.360Z,-1.30
2022-12-08T03:28:46.159Z,-1.32
2022-12-08T03:31:19.481Z,-1.45
2022-12-08T03:33:54.029Z,-1.47
2022-12-08T03:36:25.260Z,-1.43
2022-12-08T03:38:56.599Z,-1.33
2022-12-08T03:41:27.661Z,-1.33
2022-12-08T03:43:59.830Z,-1.29
2022-12-08T03:49:00.641Z,-1.31
2022-12-08T03:51:30.691Z,-1.27
2022-12-08T03:54:02.511Z,-1.20
2022-12-08T03:56:34.499Z,-1.04
2022-12-08T03:59:05.735Z,-0.98
2022-12-08T04:01:36.276Z,-0.96
2022-12-08T04:04:06.707Z,-0.82
2022-12-08T04:06:36.759Z,-0.73
2022-12-08T04:09:08.563Z,-0.67
2022-12-08T04:11:38.620Z,-0.64
2022-12-08T04:14:08.913Z,-0.52
2022-12-08T04:16:40.038Z,-0.58
2022-12-08T04:19:10.059Z,-0.58
2022-12-08T04:21:40.157Z,-0.60
2022-12-08T04:24:12.089Z,-0.62
2022-12-08T04:26:41.769Z,-0.63
2022-12-08T04:29:12.220Z,-0.63
2022-12-08T04:31:42.310Z,-0.64
2022-12-08T04:34:12.720Z,-0.59
2022-12-08T04:36:42.698Z,-0.65
2022-12-08T04:39:14.590Z,-0.71
2022-12-08T04:41:44.719Z,-0.84
2022-12-08T04:44:15.168Z,-0.89
2022-12-08T04:46:45.330Z,-0.91
2022-12-08T04:49:16.639Z,-0.95
2022-12-08T04:51:46.619Z,-0.91
2022-12-08T04:54:18.520Z,-0.95
2022-12-08T04:56:48.520Z,-1.02
2022-12-08T04:59:18.768Z,-0.95
2022-12-08T05:01:49.061Z,-0.89
2022-12-08T05:04:19.549Z,-0.86
2022-12-08T05:06:49.628Z,-0.83
2022-12-08T05:09:21.630Z,-0.78
2022-12-08T05:11:51.839Z,-0.75
2022-12-08T05:14:22.758Z,-0.71
2022-12-08T05:16:53.027Z,-0.75
2022-12-08T05:19:23.753Z,-0.77
2022-12-08T05:21:53.712Z,-0.85
2022-12-08T05:24:25.764Z,-0.91
2022-12-08T05:26:56.054Z,-0.95
2022-12-08T05:29:26.952Z,-0.90
2022-12-08T05:31:57.517Z,-0.90
2022-12-08T05:34:28.146Z,-0.90
2022-12-08T05:36:58.131Z,-0.91
2022-12-08T05:39:30.231Z,-0.89
2022-12-08T05:42:01.092Z,-1.15
2022-12-08T05:44:31.541Z,-0.84
2022-12-08T05:47:01.341Z,-0.76
2022-12-08T05:49:31.684Z,-0.71
2022-12-08T05:52:01.542Z,-0.69
2022-12-08T05:54:33.285Z,-0.70
2022-12-08T05:57:02.979Z,-0.73
2022-12-08T05:59:33.336Z,-0.79
2022-12-08T06:02:03.390Z,-0.86
2022-12-08T06:04:33.892Z,-0.91
2022-12-08T06:07:03.975Z,-0.90
2022-12-08T06:09:35.884Z,-0.98
2022-12-08T06:12:06.035Z,-1.06
2022-12-08T06:14:36.395Z,-1.14
2022-12-08T06:17:06.455Z,-1.20
2022-12-08T06:19:36.872Z,-1.25
2022-12-08T06:22:06.712Z,-1.29
2022-12-08T06:24:38.624Z,-1.27
2022-12-08T06:27:08.493Z,-1.23
2022-12-08T06:29:38.829Z,-1.14
2022-12-08T06:32:09.195Z,-1.09
2022-12-08T06:34:41.041Z,-1.10
2022-12-08T06:37:10.904Z,-1.17
2022-12-08T06:39:42.824Z,-1.15
2022-12-08T06:42:32.042Z,-1.07
2022-12-08T06:45:03.361Z,-1.03
2022-12-08T06:47:33.493Z,-1.04
2022-12-08T06:50:04.366Z,-1.03
2022-12-08T06:52:37.688Z,-0.96
2022-12-08T06:55:29.097Z,-0.94
2022-12-08T06:58:03.584Z,-0.97
2022-12-08T07:00:33.952Z,-0.99
2022-12-08T07:03:04.054Z,-1.03
2022-12-08T07:05:34.482Z,-1.03
2022-12-08T07:08:04.819Z,-1.03
2022-12-08T07:10:37.204Z,-1.05
2022-12-08T07:13:07.492Z,-1.03
2022-12-08T07:15:38.075Z,-1.07
2022-12-08T07:18:08.082Z,-1.08
2022-12-08T07:20:38.746Z,-1.12
2022-12-08T07:23:08.595Z,-1.16
2022-12-08T07:25:40.643Z,-1.22
2022-12-08T07:28:12.343Z,-1.23
2022-12-08T07:30:42.872Z,-1.17
2022-12-08T07:33:12.874Z,-1.18
2022-12-08T07:35:49.013Z,-1.21
2022-12-08T07:38:19.667Z,-1.28
2022-12-08T07:40:51.932Z,-1.29
2022-12-08T07:43:21.919Z,-1.25
2022-12-08T07:45:53.642Z,-1.26
2022-12-08T07:48:24.247Z,-1.26
2022-12-08T07:51:02.958Z,-1.29
2022-12-08T07:53:33.824Z,-1.31
2022-12-08T07:56:09.013Z,-1.30
2022-12-08T07:58:39.309Z,-1.38
2022-12-08T08:01:19.960Z,-1.41
2022-12-08T08:03:50.084Z,-1.37
2022-12-08T08:06:20.386Z,-1.37
2022-12-08T08:08:51.296Z,-1.35
2022-12-08T08:11:26.166Z,-1.34
2022-12-08T08:13:56.213Z,-1.31
2022-12-08T08:16:26.658Z,-1.26
2022-12-08T08:18:56.796Z,-1.20
2022-12-08T08:21:45.022Z,-1.49
2022-12-08T08:24:16.085Z,-1.11
2022-12-08T08:26:47.829Z,-1.10
2022-12-08T08:29:17.977Z,-1.11
2022-12-08T08:31:48.293Z,-1.06
2022-12-08T08:34:18.785Z,-1.05
2022-12-08T08:36:49.193Z,-1.07
2022-12-08T08:39:19.338Z,-1.06
2022-12-08T08:41:51.184Z,-1.03
2022-12-08T08:44:20.883Z,-1.00
2022-12-08T08:46:51.126Z,-0.96
2022-12-08T08:49:21.723Z,-0.98
2022-12-08T08:51:52.812Z,-0.97
2022-12-08T08:54:22.873Z,-0.92
2022-12-08T08:56:55.104Z,-0.90
2022-12-08T08:59:24.864Z,-0.86
2022-12-08T09:01:56.307Z,-0.82
2022-12-08T09:04:27.128Z,-0.78
2022-12-08T09:06:58.135Z,-0.73
2022-12-08T09:09:29.072Z,-0.69
2022-12-08T09:12:01.563Z,-0.66
2022-12-08T09:14:31.569Z,-0.62
2022-12-08T09:17:02.305Z,-0.56
2022-12-08T09:19:32.574Z,-0.60
2022-12-08T09:22:03.105Z,-0.59
2022-12-08T09:24:33.533Z,-0.61
2022-12-08T09:27:05.531Z,-0.62
2022-12-08T09:29:36.391Z,-0.58
2022-12-08T09:32:07.506Z,-0.57
2022-12-08T09:34:37.674Z,-0.56
2022-12-08T09:37:08.377Z,-0.56
2022-12-08T09:39:38.322Z,-0.58
2022-12-08T09:42:12.073Z,-0.59
2022-12-08T09:44:57.654Z,-0.55
2022-12-08T09:47:36.068Z,-0.55
2022-12-08T09:50:14.334Z,-0.55
2022-12-08T09:52:48.916Z,-0.54
2022-12-08T09:55:27.097Z,-0.54
2022-12-08T09:58:05.165Z,-0.53
2022-12-08T10:00:35.958Z,-0.48
2022-12-08T10:03:06.705Z,-0.48
2022-12-08T10:05:43.412Z,-0.47
2022-12-08T10:08:22.519Z,-0.44
2022-12-08T10:10:58.692Z,-0.43
2022-12-08T10:13:39.114Z,-0.41
2022-12-08T10:16:26.609Z,-0.41
2022-12-08T10:19:11.974Z,-0.41
2022-12-08T10:21:42.404Z,-0.40
2022-12-08T10:24:20.753Z,-0.46
2022-12-08T10:26:51.771Z,-0.45
2022-12-08T10:29:23.819Z,-0.46
2022-12-08T10:31:53.949Z,-0.46
2022-12-08T10:34:25.713Z,-0.50
2022-12-08T10:36:57.560Z,-0.52
2022-12-08T10:39:34.977Z,-0.53
2022-12-08T10:42:35.488Z,-0.52
2022-12-08T10:45:26.351Z,-0.52
2022-12-08T10:48:03.479Z,-0.51
2022-12-08T10:50:36.816Z,-0.52
2022-12-08T10:53:15.741Z,-0.50
2022-12-08T10:55:48.097Z,-0.48
2022-12-08T10:58:34.121Z,-0.46
2022-12-08T11:01:11.434Z,-0.43
2022-12-08T11:03:48.088Z,-0.40
2022-12-08T11:06:21.520Z,-0.40
2022-12-08T11:08:54.419Z,-0.36
2022-12-08T11:11:40.781Z,-0.36
2022-12-08T11:14:17.809Z,-0.40
2022-12-08T11:16:51.208Z,-0.40
2022-12-08T11:19:28.139Z,-0.40
2022-12-08T11:21:58.910Z,-0.28
2022-12-08T11:24:36.032Z,-0.28
2022-12-08T11:27:09.179Z,-0.30
2022-12-08T11:29:39.399Z,-0.30
2022-12-08T11:32:15.380Z,-0.27
2022-12-08T11:34:48.537Z,-0.28
2022-12-08T11:37:27.489Z,-0.35
2022-12-08T11:40:04.898Z,-0.34
2022-12-08T11:42:40.600Z,-0.37
2022-12-08T11:45:19.420Z,-0.31
2022-12-08T11:47:58.666Z,-0.37
2022-12-08T11:50:31.849Z,-0.45
2022-12-08T11:53:03.318Z,-0.49
2022-12-08T11:55:45.221Z,-0.55
2022-12-08T11:58:23.943Z,-0.53
2022-12-08T12:00:53.909Z,-0.57
2022-12-08T12:03:35.032Z,-0.55
2022-12-08T12:06:54.763Z,-0.60
2022-12-08T12:09:38.569Z,-0.60
2022-12-08T12:12:17.506Z,-0.69
2022-12-08T12:15:20.200Z,-0.68
2022-12-08T12:17:54.794Z,-0.72
2022-12-08T12:20:31.440Z,-0.72
2022-12-08T12:23:09.175Z,-0.71
2022-12-08T12:25:48.759Z,-0.77
2022-12-08T12:28:19.259Z,-0.80
2022-12-08T12:30:58.395Z,-0.87
2022-12-08T12:33:28.958Z,-0.95
2022-12-08T12:36:07.133Z,-0.95
2022-12-08T12:38:56.556Z,-0.93
2022-12-08T12:41:30.038Z,-0.96
2022-12-08T12:44:26.646Z,-1.00
2022-12-08T12:46:59.867Z,-1.00
2022-12-08T12:49:54.616Z,-0.97
2022-12-08T12:52:56.917Z,-1.01
2022-12-08T12:55:52.769Z,-1.07
2022-12-08T12:58:42.952Z,-1.08
2022-12-08T13:01:51.210Z,-1.14
2022-12-08T13:04:29.798Z,-1.16
2022-12-08T13:07:00.684Z,-1.21
2022-12-08T13:09:37.548Z,-1.22
2022-12-08T13:12:15.033Z,-1.25
2022-12-08T13:14:51.108Z,-1.25
2022-12-08T13:17:29.512Z,-1.29
2022-12-08T13:20:02.988Z,-1.29
2022-12-08T13:23:11.090Z,-1.31
2022-12-08T13:26:12.635Z,-1.33
2022-12-08T13:29:24.276Z,-1.34
2022-12-08T13:31:56.294Z,-1.32
2022-12-08T13:34:36.338Z,-1.31
2022-12-08T13:37:24.088Z,-1.31
2022-12-08T13:39:57.359Z,-1.34
2022-12-08T13:42:38.958Z,-1.35
2022-12-08T13:45:48.719Z,-1.38
2022-12-08T13:48:35.188Z,-1.37
2022-12-08T13:53:15.840Z,-1.39
2022-12-08T13:55:01.390Z,-1.38
2022-12-08T13:57:11.460Z,-1.38
2022-12-08T13:59:47.572Z,-1.44
2022-12-08T14:02:22.668Z,-1.43
2022-12-08T14:05:17.451Z,-1.46
2022-12-08T14:07:45.444Z,-1.41
2022-12-08T14:10:20.638Z,-1.37
2022-12-08T14:12:58.337Z,-1.34
2022-12-08T14:15:36.870Z,-1.39
2022-12-08T14:18:24.503Z,-1.39
2022-12-08T14:21:21.640Z,-1.38
2022-12-08T14:23:52.103Z,-1.40
2022-12-08T14:26:22.670Z,-1.37
2022-12-08T14:28:54.540Z,-1.35
2022-12-08T14:31:27.241Z,-1.39
2022-12-08T14:33:58.640Z,-1.40
2022-12-08T14:36:29.327Z,-1.41
2022-12-08T14:39:00.690Z,-1.45
2022-12-08T14:41:35.149Z,-1.44
2022-12-08T14:44:06.160Z,-1.42
2022-12-08T14:46:38.638Z,-1.43
2022-12-08T14:49:29.180Z,-1.43
2022-12-08T14:52:01.789Z,-1.45
2022-12-08T14:54:33.319Z,-1.46
2022-12-08T14:57:04.693Z,-1.40
2022-12-08T14:59:39.257Z,-1.39
2022-12-08T15:02:25.940Z,-1.40
2022-12-08T15:05:03.617Z,-1.43
2022-12-08T15:07:47.334Z,-1.38
2022-12-08T15:10:29.828Z,-1.40
2022-12-08T15:13:22.614Z,-1.39
2022-12-08T15:15:54.505Z,-1.40
2022-12-08T15:18:38.957Z,-1.41
2022-12-08T15:21:13.920Z,-1.44
2022-12-08T15:23:47.828Z,-1.48
2022-12-08T15:26:24.665Z,-1.46
2022-12-08T15:28:59.399Z,-1.43
2022-12-08T15:31:33.318Z,-1.44
2022-12-08T15:34:06.758Z,-1.40
2022-12-08T15:36:38.420Z,-1.40
2022-12-08T15:39:19.521Z,-1.40
2022-12-08T15:41:50.692Z,-1.40
2022-12-08T15:44:21.832Z,-1.42
2022-12-08T15:46:52.164Z,-1.42
2022-12-08T15:49:26.299Z,-1.44
2022-12-08T15:52:08.097Z,-1.44
2022-12-08T15:54:41.599Z,-1.45
2022-12-08T15:57:44.176Z,-1.46
2022-12-08T16:00:52.205Z,-1.46
2022-12-08T16:04:09.398Z,-1.43
2022-12-08T16:09:18.963Z,-1.43
2022-12-08T16:12:08.942Z,-1.40
2022-12-08T16:17:34.209Z,-1.38
2022-12-08T16:20:06.807Z,-1.37
2022-12-08T16:23:03.178Z,-1.38
2022-12-08T16:25:52.842Z,-1.38
2022-12-08T16:28:53.002Z,-1.38
2022-12-08T16:31:21.389Z,-1.36
2022-12-08T16:33:53.988Z,-1.36
2022-12-08T16:36:24.844Z,-1.31
2022-12-08T16:38:58.708Z,-1.32
2022-12-08T16:41:46.984Z,-1.31
2022-12-08T16:44:17.568Z,-1.28
2022-12-08T16:46:47.708Z,-1.31
2022-12-08T16:49:18.077Z,-1.30
2022-12-08T16:51:48.017Z,-1.30
2022-12-08T16:54:19.968Z,-1.30
2022-12-08T16:56:49.488Z,-1.31
2022-12-08T16:59:19.719Z,-1.31
2022-12-08T17:01:50.419Z,-1.29
2022-12-08T17:04:31.374Z,-1.26
2022-12-08T17:07:02.512Z,-1.25
2022-12-08T17:09:34.939Z,-1.23
2022-12-08T17:12:05.507Z,-1.23
2022-12-08T17:14:36.898Z,-1.23
2022-12-08T17:17:07.333Z,-1.22
2022-12-08T17:19:37.837Z,-1.21
2022-12-08T17:22:07.867Z,-1.20
2022-12-08T17:24:39.727Z,-1.20
2022-12-08T17:27:09.860Z,-1.18
2022-12-08T17:29:40.451Z,-1.17
2022-12-08T17:32:13.970Z,-1.18
2022-12-08T17:34:44.328Z,-1.18
2022-12-08T17:37:14.409Z,-1.17
2022-12-08T17:39:47.217Z,-1.15
2022-12-08T17:42:16.855Z,-1.15
2022-12-08T17:44:47.588Z,-1.14
2022-12-08T17:47:17.547Z,-1.14
2022-12-08T17:49:48.341Z,-1.15
2022-12-08T17:52:18.619Z,-1.16
2022-12-08T17:54:50.668Z,-1.13
2022-12-08T17:57:20.772Z,-1.12
2022-12-08T17:59:51.175Z,-1.14
2022-12-08T18:02:23.100Z,-1.13
2022-12-08T18:04:53.530Z,-1.11
2022-12-08T18:07:23.463Z,-1.13
2022-12-08T18:09:55.579Z,-1.13
2022-12-08T18:12:25.636Z,-1.12
2022-12-08T18:14:55.969Z,-1.40
2022-12-08T18:17:25.996Z,-1.12
2022-12-08T18:19:56.759Z,-1.13
2022-12-08T18:22:30.050Z,-1.12
2022-12-08T18:25:05.641Z,-1.14
2022-12-08T18:27:42.747Z,-1.12
2022-12-08T18:30:18.961Z,-1.11
2022-12-08T18:32:55.724Z,-1.15
2022-12-08T18:35:29.451Z,-1.13
2022-12-08T18:38:00.481Z,-1.15
2022-12-08T18:40:33.585Z,-1.10
2022-12-08T18:43:04.500Z,-1.07
2022-12-08T18:45:37.254Z,-1.07
2022-12-08T18:48:09.020Z,-1.06
2022-12-08T18:50:43.293Z,-1.04
2022-12-08T18:53:13.466Z,-1.04
2022-12-08T18:55:46.984Z,-1.07
2022-12-08T18:58:17.448Z,-1.06
2022-12-08T19:00:49.624Z,-1.06
2022-12-08T19:03:19.968Z,-1.07
2022-12-08T19:05:50.468Z,-1.05
2022-12-08T19:08:22.553Z,-1.07
2022-12-08T19:10:56.158Z,-1.10
2022-12-08T19:13:27.499Z,-1.09
2022-12-08T19:15:58.291Z,-1.10
2022-12-08T19:18:28.308Z,-1.06
2022-12-08T19:20:59.938Z,-1.08
2022-12-08T19:23:31.994Z,-1.12
2022-12-08T19:26:06.306Z,-1.12
2022-12-08T19:28:37.522Z,-1.10
2022-12-08T19:31:11.098Z,-1.08
2022-12-08T19:33:41.719Z,-1.07
2022-12-08T19:36:15.077Z,-1.07
2022-12-08T19:39:02.824Z,-1.07
2022-12-08T19:41:52.504Z,-1.11
2022-12-08T19:44:41.227Z,-1.09
2022-12-08T19:47:12.269Z,-1.12
2022-12-08T19:49:42.483Z,-1.18
2022-12-08T19:52:12.909Z,-1.27
2022-12-08T19:54:43.141Z,-1.38
2022-12-08T19:57:14.988Z,-1.50
2022-12-08T19:59:45.079Z,-1.69
2022-12-08T20:02:15.681Z,-1.78
2022-12-08T20:04:46.178Z,-1.91
2022-12-08T20:07:17.095Z,-2.02
2022-12-08T20:09:47.526Z,-2.20
2022-12-08T20:12:19.312Z,-2.28
2022-12-08T20:14:49.691Z,-2.48
2022-12-08T20:17:20.178Z,-2.56
2022-12-08T20:19:50.217Z,-2.59
2022-12-08T20:22:20.870Z,-2.62
2022-12-08T20:25:09.630Z,-2.69
2022-12-08T20:27:43.019Z,-2.89
2022-12-08T20:30:17.068Z,-2.83
2022-12-08T20:32:48.250Z,-2.83
2022-12-08T20:35:18.588Z,-2.91
2022-12-08T20:37:49.149Z,-2.95
2022-12-08T20:40:21.877Z,-2.98
2022-12-08T20:42:54.629Z,-2.96
2022-12-08T20:45:24.429Z,-2.88
2022-12-08T20:47:55.087Z,-2.69
2022-12-08T20:50:25.547Z,-2.59
2022-12-08T20:52:56.296Z,-2.59
2022-12-08T20:55:26.945Z,-2.54
2022-12-08T20:57:59.960Z,-2.48
2022-12-08T21:00:31.642Z,-2.48
2022-12-08T21:03:05.441Z,-2.41
2022-12-08T21:05:39.121Z,-2.38
2022-12-08T21:08:10.056Z,-2.35
2022-12-08T21:10:43.788Z,-2.34
2022-12-08T21:13:17.543Z,-2.29
2022-12-08T21:15:49.043Z,-2.25
2022-12-08T21:18:20.213Z,-2.21
2022-12-08T21:20:51.558Z,-2.16
2022-12-08T21:23:22.027Z,-2.13
2022-12-08T21:25:52.777Z,-2.11
2022-12-08T21:28:25.294Z,-2.10
2022-12-08T21:30:58.071Z,-2.07
2022-12-08T21:33:30.899Z,-2.08
2022-12-08T21:36:08.256Z,-2.09
2022-12-08T21:38:40.442Z,-2.06
2022-12-08T21:41:12.844Z,-2.00
2022-12-08T21:43:45.137Z,-1.94
2022-12-08T21:46:21.253Z,-1.91
2022-12-08T21:48:51.835Z,-1.87
2022-12-08T21:51:23.439Z,-1.84
2022-12-08T21:53:54.088Z,-1.86
2022-12-08T21:56:24.518Z,-1.84
2022-12-08T21:58:58.307Z,-1.80
2022-12-08T22:01:29.029Z,-1.80
2022-12-08T22:04:00.673Z,-1.78
2022-12-08T22:06:31.608Z,-1.79
2022-12-08T22:09:02.713Z,-1.80
2022-12-08T22:11:33.352Z,-1.81
2022-12-08T22:14:10.860Z,-1.81
2022-12-08T22:16:44.356Z,-1.83
2022-12-08T22:19:15.267Z,-1.83
2022-12-08T22:21:46.500Z,-1.86
2022-12-08T22:24:16.916Z,-1.88
2022-12-08T22:26:47.177Z,-1.88
2022-12-08T22:29:19.669Z,-2.13
2022-12-08T22:31:50.718Z,-1.97
2022-12-08T22:34:21.205Z,-2.06
2022-12-08T22:36:51.679Z,-2.20
2022-12-08T22:39:22.130Z,-2.28
2022-12-08T22:41:52.728Z,-2.27
2022-12-08T22:44:25.088Z,-2.33
2022-12-08T22:46:55.508Z,-2.55
2022-12-08T22:49:26.657Z,-2.67
2022-12-08T22:51:57.361Z,-2.63
2022-12-08T22:54:28.207Z,-2.76
2022-12-08T22:56:58.362Z,-2.84
2022-12-08T22:59:33.758Z,-2.89
2022-12-08T23:02:04.106Z,-2.94
2022-12-08T23:04:34.786Z,-3.02
2022-12-08T23:07:05.044Z,-3.07
2022-12-08T23:09:35.437Z,-3.13
2022-12-08T23:12:05.842Z,-3.18
2022-12-08T23:14:37.868Z,-3.34
2022-12-08T23:17:08.321Z,-3.42
2022-12-08T23:19:38.749Z,-3.43
2022-12-08T23:22:09.578Z,-3.42
2022-12-08T23:24:40.462Z,-3.40
2022-12-08T23:27:10.669Z,-3.45
2022-12-08T23:29:42.388Z,-3.51
2022-12-08T23:32:12.580Z,-3.52
2022-12-08T23:34:43.228Z,-3.60
2022-12-08T23:37:13.431Z,-3.60
2022-12-08T23:39:44.056Z,-3.62
2022-12-08T23:42:14.595Z,-3.72
2022-12-08T23:44:46.796Z,-3.72
2022-12-08T23:47:17.157Z,-3.71
2022-12-08T23:49:47.902Z,-3.71
2022-12-08T23:52:17.849Z,-3.72
2022-12-08T23:54:48.229Z,-3.75
2022-12-08T23:57:18.264Z,-3.75
2022-12-08T23:59:50.515Z,-3.79
